Time;durP1;ratioP1;P1;durP2;ratioP2;P2;SDS_P1;SDS_P2;PMS_P1;PMS_P2;Temp;Humidity;BMP_temperature;BMP_pressure;BME280_temperature;BME280_humidity;BME280_pressure;Samples;Min_cycle;Max_cycle;Signal;HPM_P1;HPM_P2
2022/09/19 00:01:10;;;;;;;3.90;1.83;;;;;;;;;;5022583;28;20049;-72
2022/09/19 00:03:37;;;;;;;4.68;1.10;;;;;;;;;;5022449;28;20046;-72
2022/09/19 00:06:04;;;;;;;1.33;1.00;;;;;;;;;;5023108;28;20034;-72
2022/09/19 00:08:30;;;;;;;1.40;1.30;;;;;;;;;;5023184;28;20409;-72
2022/09/19 00:10:55;;;;;;;0.88;0.88;;;;;;;;;;5021846;28;20052;-72
2022/09/19 00:13:20;;;;;;;1.27;1.00;;;;;;;;;;5002093;28;20475;-72
2022/09/19 00:15:49;;;;;;;4.85;1.52;;;;;;;;;;5004194;28;20160;-71
2022/09/19 00:18:15;;;;;;;0.82;0.80;;;;;;;;;;5001877;28;20042;-71
2022/09/19 00:20:49;;;;;;;1.83;1.02;;;;;;;;;;5021997;28;20076;-71
2022/09/19 00:26:11;;;;;;;4.15;1.20;;;;;;;;;;4971345;28;20045;-71
2022/09/19 00:28:38;;;;;;;4.30;1.45;;;;;;;;;;5020569;28;20056;-72
2022/09/19 00:31:04;;;;;;;1.75;1.20;;;;;;;;;;5021978;28;20049;-70
2022/09/19 00:33:32;;;;;;;1.05;1.05;;;;;;;;;;5002234;28;20092;-69
2022/09/19 00:36:00;;;;;;;2.90;1.80;;;;;;;;;;5000410;28;20394;-69
2022/09/19 00:38:27;;;;;;;3.67;1.40;;;;;;;;;;5018058;28;20554;-69
2022/09/19 00:40:53;;;;;;;15.13;2.35;;;;;;;;;;5000782;28;20052;-69
2022/09/19 00:43:21;;;;;;;1.02;1.02;;;;;;;;;;5017559;28;20064;-72
2022/09/19 00:45:47;;;;;;;1.20;1.10;;;;;;;;;;5003795;28;20454;-72
2022/09/19 00:48:17;;;;;;;2.72;1.23;;;;;;;;;;4999722;28;20068;-72
2022/09/19 00:50:52;;;;;;;8.40;0.90;;;;;;;;;;5003174;28;20120;-72
2022/09/19 00:53:22;;;;;;;2.53;1.10;;;;;;;;;;5021212;28;20049;-72
2022/09/19 00:55:50;;;;;;;2.47;1.15;;;;;;;;;;5021834;28;20119;-69
2022/09/19 00:58:21;;;;;;;9.45;1.60;;;;;;;;;;5020780;28;20056;-71
2022/09/19 01:00:47;;;;;;;1.23;0.90;;;;;;;;;;4987256;28;20056;-72
2022/09/19 01:03:13;;;;;;;4.13;1.00;;;;;;;;;;5020824;28;20276;-72
2022/09/19 01:05:46;;;;;;;2.25;1.23;;;;;;;;;;4999063;28;20037;-72
2022/09/19 01:08:46;;;;;;;1.15;0.90;;;;;;;;;;5020376;28;20050;-72
2022/09/19 01:11:30;;;;;;;1.80;1.00;;;;;;;;;;4995683;28;20042;-72
2022/09/19 01:14:08;;;;;;;2.35;0.70;;;;;;;;;;5017036;28;20058;-72
2022/09/19 01:16:42;;;;;;;0.52;0.52;;;;;;;;;;5001518;28;20042;-71
2022/09/19 01:19:23;;;;;;;3.00;1.00;;;;;;;;;;5020439;28;20052;-69
2022/09/19 01:22:05;;;;;;;2.15;1.10;;;;;;;;;;5020471;28;20985;-69
2022/09/19 01:24:49;;;;;;;1.38;1.00;;;;;;;;;;5002098;28;20042;-70
2022/09/19 01:27:40;;;;;;;1.05;0.95;;;;;;;;;;4999708;28;20057;-70
2022/09/19 01:30:09;;;;;;;1.00;1.00;;;;;;;;;;5013734;28;20041;-70
2022/09/19 01:33:10;;;;;;;1.55;1.30;;;;;;;;;;5001118;28;20042;-70
2022/09/19 01:35:39;;;;;;;1.13;1.02;;;;;;;;;;4973678;28;20054;-70
2022/09/19 01:38:29;;;;;;;1.30;1.20;;;;;;;;;;4998369;28;20050;-70
2022/09/19 01:40:56;;;;;;;3.25;0.90;;;;;;;;;;4991906;28;20049;-74
2022/09/19 01:43:22;;;;;;;1.20;1.10;;;;;;;;;;5003081;28;20060;-70
2022/09/19 01:45:50;;;;;;;3.47;0.88;;;;;;;;;;5020813;28;20053;-70
2022/09/19 01:48:36;;;;;;;0.38;0.38;;;;;;;;;;4999444;28;20762;-70
2022/09/19 01:51:28;;;;;;;0.73;0.50;;;;;;;;;;4999520;28;20053;-73
2022/09/19 01:54:06;;;;;;;0.30;0.30;;;;;;;;;;5013442;28;20041;-73
2022/09/19 01:57:01;;;;;;;0.15;0.15;;;;;;;;;;5002088;28;20073;-73
2022/09/19 01:59:52;;;;;;;0.57;0.30;;;;;;;;;;4985167;28;20056;-72
2022/09/19 02:02:23;;;;;;;0.47;0.40;;;;;;;;;;5015036;28;20144;-72
2022/09/19 02:04:58;;;;;;;;;;;;;;;;;;4984029;28;20406;-72
2022/09/19 02:07:43;;;;;;;0.60;0.47;;;;;;;;;;4999231;28;19921;-72
2022/09/19 02:10:17;;;;;;;0.20;0.20;;;;;;;;;;5002654;28;20049;-72
2022/09/19 02:12:50;;;;;;;0.20;0.20;;;;;;;;;;5018456;28;20136;-72
2022/09/19 02:15:36;;;;;;;0.28;0.28;;;;;;;;;;5002664;28;20492;-72
2022/09/19 02:18:08;;;;;;;0.30;0.30;;;;;;;;;;4999347;28;20064;-72
2022/09/19 02:20:39;;;;;;;2.08;0.20;;;;;;;;;;4984894;28;20042;-72
2022/09/19 02:23:11;;;;;;;0.20;0.20;;;;;;;;;;4998765;28;20049;-73
2022/09/19 02:25:39;;;;;;;0.20;0.20;;;;;;;;;;5017074;28;20403;-72
2022/09/19 02:28:09;;;;;;;0.75;0.30;;;;;;;;;;4999083;28;20505;-69
2022/09/19 02:30:35;;;;;;;0.20;0.20;;;;;;;;;;5000451;28;20050;-70
2022/09/19 02:33:07;;;;;;;3.30;0.30;;;;;;;;;;4999056;28;20050;-70
2022/09/19 02:35:34;;;;;;;0.20;0.20;;;;;;;;;;5000241;28;20107;-70
2022/09/19 02:38:25;;;;;;;0.20;0.20;;;;;;;;;;5015053;28;20050;-72
2022/09/19 02:41:01;;;;;;;0.40;0.20;;;;;;;;;;5015013;28;20042;-72
2022/09/19 02:43:38;;;;;;;0.20;0.20;;;;;;;;;;4978742;28;20077;-72
2022/09/19 02:46:10;;;;;;;0.10;0.10;;;;;;;;;;4999501;28;20473;-72
2022/09/19 02:48:56;;;;;;;0.15;0.15;;;;;;;;;;5000437;28;20046;-72
2022/09/19 02:51:25;;;;;;;0.22;0.22;;;;;;;;;;4998967;28;20432;-72
2022/09/19 02:54:00;;;;;;;0.20;0.20;;;;;;;;;;5002547;28;20493;-70
2022/09/19 02:56:30;;;;;;;2.50;0.32;;;;;;;;;;5002375;28;20136;-70
2022/09/19 02:59:04;;;;;;;0.22;0.22;;;;;;;;;;4999510;28;20073;-69
2022/09/19 03:01:47;;;;;;;2.40;0.20;;;;;;;;;;4988905;28;20080;-70
2022/09/19 03:04:17;;;;;;;0.20;0.20;;;;;;;;;;5001724;28;20038;-69
2022/09/19 03:06:57;;;;;;;0.20;0.20;;;;;;;;;;5005221;28;20087;-70
2022/09/19 03:09:28;;;;;;;1.00;0.30;;;;;;;;;;5004600;28;21006;-72
2022/09/19 03:12:20;;;;;;;0.30;0.30;;;;;;;;;;5005301;28;20053;-72
2022/09/19 03:14:48;;;;;;;3.25;0.60;;;;;;;;;;5005998;28;20592;-72
2022/09/19 03:17:20;;;;;;;0.40;0.40;;;;;;;;;;5001834;28;20498;-72
2022/09/19 03:19:47;;;;;;;0.38;0.38;;;;;;;;;;5002774;28;20041;-72
2022/09/19 03:22:14;;;;;;;0.38;0.38;;;;;;;;;;5001911;28;20045;-72
2022/09/19 03:24:41;;;;;;;0.50;0.50;;;;;;;;;;4988390;28;20521;-70
2022/09/19 03:27:08;;;;;;;2.92;0.40;;;;;;;;;;5023187;28;20476;-70
2022/09/19 03:29:35;;;;;;;0.30;0.30;;;;;;;;;;5003773;28;20564;-70
2022/09/19 03:32:02;;;;;;;0.70;0.70;;;;;;;;;;5001159;28;20060;-70
2022/09/19 03:34:32;;;;;;;2.60;0.77;;;;;;;;;;5002735;28;20057;-69
2022/09/19 03:37:00;;;;;;;2.35;0.73;;;;;;;;;;5001903;28;20050;-70
2022/09/19 03:39:28;;;;;;;0.60;0.60;;;;;;;;;;5002802;28;20076;-70
2022/09/19 03:41:55;;;;;;;4.90;0.80;;;;;;;;;;5000299;28;20565;-70
2022/09/19 03:44:20;;;;;;;0.65;0.65;;;;;;;;;;5002028;28;20065;-70
2022/09/19 03:46:47;;;;;;;1.95;1.05;;;;;;;;;;5004912;28;20044;-70
2022/09/19 03:49:14;;;;;;;0.93;0.90;;;;;;;;;;5001153;28;20049;-70
2022/09/19 03:51:40;;;;;;;4.13;1.05;;;;;;;;;;5004224;28;20076;-70
2022/09/19 03:54:07;;;;;;;0.93;0.80;;;;;;;;;;5001811;28;20069;-70
2022/09/19 03:56:40;;;;;;;3.28;0.88;;;;;;;;;;5017387;28;20041;-70
2022/09/19 03:59:07;;;;;;;1.10;0.98;;;;;;;;;;5000809;28;20046;-70
2022/09/19 04:01:36;;;;;;;0.68;0.68;;;;;;;;;;5003282;28;20095;-70
2022/09/19 04:04:05;;;;;;;1.27;0.80;;;;;;;;;;5001025;28;20058;-72
2022/09/19 04:06:34;;;;;;;1.15;0.95;;;;;;;;;;5002138;28;20054;-72
2022/09/19 04:09:01;;;;;;;1.17;1.08;;;;;;;;;;4999357;28;20064;-72
2022/09/19 04:11:29;;;;;;;3.70;1.33;;;;;;;;;;5000808;28;20065;-73
2022/09/19 04:13:55;;;;;;;1.30;0.73;;;;;;;;;;5001113;28;20572;-73
2022/09/19 04:16:21;;;;;;;5.22;1.20;;;;;;;;;;5000276;28;20082;-72
2022/09/19 04:18:49;;;;;;;1.90;1.08;;;;;;;;;;5003662;28;20069;-73
2022/09/19 04:21:34;;;;;;;1.10;0.90;;;;;;;;;;5001157;28;20273;-73
2022/09/19 04:24:09;;;;;;;3.65;1.25;;;;;;;;;;5001292;28;20045;-73
2022/09/19 04:26:53;;;;;;;1.67;1.00;;;;;;;;;;5004048;28;20045;-73
2022/09/19 04:29:19;;;;;;;0.82;0.82;;;;;;;;;;5021180;28;20156;-73
2022/09/19 04:31:46;;;;;;;1.98;0.47;;;;;;;;;;5003778;28;20087;-73
2022/09/19 04:34:14;;;;;;;2.65;0.75;;;;;;;;;;5000777;28;20041;-70
2022/09/19 04:36:41;;;;;;;1.45;0.90;;;;;;;;;;5003126;28;20115;-72
2022/09/19 04:39:06;;;;;;;4.63;1.10;;;;;;;;;;4999830;28;20046;-73
2022/09/19 04:41:37;;;;;;;1.77;0.85;;;;;;;;;;5002187;28;20045;-73
2022/09/19 04:44:05;;;;;;;1.45;1.08;;;;;;;;;;5000706;28;20100;-73
2022/09/19 04:46:51;;;;;;;0.75;0.60;;;;;;;;;;4989881;28;20107;-73
2022/09/19 04:49:17;;;;;;;0.82;0.65;;;;;;;;;;4997248;28;20050;-72
2022/09/19 04:51:43;;;;;;;2.80;0.80;;;;;;;;;;5003729;28;20449;-72
2022/09/19 04:54:10;;;;;;;3.00;0.65;;;;;;;;;;5000936;28;20048;-71
2022/09/19 04:56:36;;;;;;;1.88;0.80;;;;;;;;;;5000225;28;20054;-71
2022/09/19 04:59:04;;;;;;;1.00;0.50;;;;;;;;;;4998962;28;20046;-70
2022/09/19 05:01:30;;;;;;;2.10;0.90;;;;;;;;;;5000488;28;20042;-70
2022/09/19 05:03:57;;;;;;;1.60;0.75;;;;;;;;;;5000075;28;20050;-69
2022/09/19 05:06:23;;;;;;;0.82;0.63;;;;;;;;;;5000168;28;20046;-70
2022/09/19 05:08:50;;;;;;;0.43;0.43;;;;;;;;;;4999230;28;20145;-70
2022/09/19 05:11:37;;;;;;;1.00;0.47;;;;;;;;;;4997513;28;20415;-70
2022/09/19 05:14:03;;;;;;;0.65;0.57;;;;;;;;;;5020109;28;20041;-70
2022/09/19 05:16:31;;;;;;;2.83;0.73;;;;;;;;;;4999782;28;20046;-70
2022/09/19 05:18:58;;;;;;;0.45;0.45;;;;;;;;;;4996403;28;20123;-70
2022/09/19 05:21:24;;;;;;;4.07;0.70;;;;;;;;;;4996975;28;20409;-70
2022/09/19 05:23:50;;;;;;;2.15;0.60;;;;;;;;;;4983611;28;20041;-70
2022/09/19 05:26:16;;;;;;;2.15;0.60;;;;;;;;;;5000143;28;20060;-70
2022/09/19 05:28:45;;;;;;;6.97;1.00;;;;;;;;;;4999726;28;20240;-70
2022/09/19 05:31:13;;;;;;;3.78;0.73;;;;;;;;;;4998114;28;20049;-70
2022/09/19 05:33:43;;;;;;;4.00;0.70;;;;;;;;;;5001777;28;20410;-70
2022/09/19 05:36:13;;;;;;;1.63;0.70;;;;;;;;;;5000130;28;20498;-70
2022/09/19 05:38:59;;;;;;;6.47;0.90;;;;;;;;;;4988614;28;20088;-71
2022/09/19 05:41:43;;;;;;;1.67;0.52;;;;;;;;;;5020506;28;20552;-70
2022/09/19 05:44:16;;;;;;;0.70;0.60;;;;;;;;;;4998797;28;20107;-70
2022/09/19 05:46:43;;;;;;;1.23;0.80;;;;;;;;;;5002571;28;20046;-70
2022/09/19 05:49:09;;;;;;;3.40;0.45;;;;;;;;;;4998994;28;20048;-70
2022/09/19 05:51:35;;;;;;;2.03;0.60;;;;;;;;;;5001370;28;20042;-69
2022/09/19 05:54:01;;;;;;;5.80;0.88;;;;;;;;;;4999154;28;20069;-70
2022/09/19 05:56:40;;;;;;;11.30;1.00;;;;;;;;;;5001515;28;20126;-71
2022/09/19 05:59:08;;;;;;;2.78;0.70;;;;;;;;;;4999059;28;20053;-70
2022/09/19 06:01:37;;;;;;;4.00;0.77;;;;;;;;;;5001044;28;20041;-70
2022/09/19 06:04:07;;;;;;;3.63;0.95;;;;;;;;;;4999577;28;21066;-70
2022/09/19 06:06:36;;;;;;;4.43;1.23;;;;;;;;;;5000843;28;20045;-70
2022/09/19 06:09:02;;;;;;;2.30;1.00;;;;;;;;;;4998547;28;20046;-71
2022/09/19 06:11:32;;;;;;;5.47;1.10;;;;;;;;;;5000917;28;20092;-71
2022/09/19 06:14:17;;;;;;;3.88;1.20;;;;;;;;;;4999619;28;20077;-71
2022/09/19 06:16:45;;;;;;;2.15;0.93;;;;;;;;;;5013159;28;21059;-70
2022/09/19 06:19:30;;;;;;;6.82;1.30;;;;;;;;;;4999039;28;20080;-71
2022/09/19 06:22:05;;;;;;;4.53;0.88;;;;;;;;;;5000037;28;20041;-71
2022/09/19 06:24:31;;;;;;;1.10;0.93;;;;;;;;;;4989249;28;20742;-71
2022/09/19 06:26:57;;;;;;;4.30;1.23;;;;;;;;;;4996451;28;20034;-72
2022/09/19 06:29:25;;;;;;;3.50;0.98;;;;;;;;;;4997139;28;20518;-71
2022/09/19 06:32:11;;;;;;;2.40;1.17;;;;;;;;;;5017581;28;20154;-71
2022/09/19 06:34:40;;;;;;;2.35;0.93;;;;;;;;;;5003683;28;20089;-71
2022/09/19 06:37:06;;;;;;;3.10;0.63;;;;;;;;;;5000352;28;20129;-71
2022/09/19 06:39:32;;;;;;;7.35;1.33;;;;;;;;;;5001859;28;20049;-71
2022/09/19 06:42:15;;;;;;;9.30;1.20;;;;;;;;;;5001299;28;20562;-71
2022/09/19 06:44:57;;;;;;;6.95;1.20;;;;;;;;;;5005302;28;20140;-71
2022/09/19 06:47:30;;;;;;;3.55;1.02;;;;;;;;;;4987216;28;20496;-71
2022/09/19 06:50:06;;;;;;;3.13;0.60;;;;;;;;;;5001123;28;20392;-71
2022/09/19 06:52:34;;;;;;;2.30;0.80;;;;;;;;;;5002598;28;20070;-69
2022/09/19 06:55:03;;;;;;;2.15;0.60;;;;;;;;;;5001301;28;20609;-70
2022/09/19 06:57:30;;;;;;;3.35;0.90;;;;;;;;;;5001317;28;20050;-70
2022/09/19 06:59:55;;;;;;;3.65;0.80;;;;;;;;;;5000883;28;20080;-71
2022/09/19 07:02:21;;;;;;;4.03;1.00;;;;;;;;;;5002216;28;20413;-71
2022/09/19 07:04:49;;;;;;;7.28;0.90;;;;;;;;;;5003030;28;20506;-71
2022/09/19 07:07:28;;;;;;;6.18;1.27;;;;;;;;;;5000370;28;20120;-71
2022/09/19 07:09:57;;;;;;;4.85;1.23;;;;;;;;;;5002616;28;20062;-71
2022/09/19 07:12:23;;;;;;;8.43;1.00;;;;;;;;;;4985845;28;20077;-71
2022/09/19 07:14:52;;;;;;;3.90;1.05;;;;;;;;;;5005787;28;20041;-71
2022/09/19 07:17:17;;;;;;;5.55;1.02;;;;;;;;;;5005073;28;20080;-71
2022/09/19 07:19:46;;;;;;;2.58;1.00;;;;;;;;;;5005703;28;20038;-70
2022/09/19 07:22:41;;;;;;;4.00;1.00;;;;;;;;;;5004920;28;20041;-69
2022/09/19 07:25:33;;;;;;;4.43;0.80;;;;;;;;;;4995173;28;20064;-69
2022/09/19 07:28:03;;;;;;;1.77;1.02;;;;;;;;;;5002365;28;20100;-69
2022/09/19 07:30:30;;;;;;;6.07;0.98;;;;;;;;;;5003661;28;20072;-70
2022/09/19 07:32:57;;;;;;;2.65;1.20;;;;;;;;;;5002535;28;20104;-70
2022/09/19 07:35:28;;;;;;;4.72;0.75;;;;;;;;;;5002075;28;20059;-69
2022/09/19 07:37:56;;;;;;;2.58;0.60;;;;;;;;;;5002529;28;20046;-69
2022/09/19 07:40:42;;;;;;;2.45;1.15;;;;;;;;;;5004655;28;20038;-70
2022/09/19 07:43:19;;;;;;;3.45;1.02;;;;;;;;;;5001152;28;20057;-70
2022/09/19 07:46:10;;;;;;;0.38;0.38;;;;;;;;;;4999699;28;20069;-69
2022/09/19 07:48:47;;;;;;;5.55;0.93;;;;;;;;;;5005935;28;20048;-70
2022/09/19 07:51:30;;;;;;;8.80;1.00;;;;;;;;;;5005320;28;20053;-69
2022/09/19 07:53:57;;;;;;;2.42;0.90;;;;;;;;;;4999633;28;20049;-69
2022/09/19 07:56:23;;;;;;;8.10;1.17;;;;;;;;;;4999806;28;21084;-70
2022/09/19 07:58:49;;;;;;;7.10;1.00;;;;;;;;;;5020260;28;20136;-70
2022/09/19 08:01:15;;;;;;;1.83;0.90;;;;;;;;;;5004211;28;20049;-69
2022/09/19 08:04:07;;;;;;;4.10;1.25;;;;;;;;;;4993304;28;20453;-72
2022/09/19 08:06:53;;;;;;;7.32;1.73;;;;;;;;;;5020115;28;20060;-71
2022/09/19 08:09:20;;;;;;;3.85;1.17;;;;;;;;;;4999350;28;20048;-70
2022/09/19 08:12:04;;;;;;;0.90;0.70;;;;;;;;;;5000891;28;20585;-70
2022/09/19 08:14:33;;;;;;;12.20;1.13;;;;;;;;;;5016286;28;20049;-70
2022/09/19 08:17:00;;;;;;;3.58;0.63;;;;;;;;;;4999150;28;20054;-71
2022/09/19 08:19:28;;;;;;;6.53;1.10;;;;;;;;;;5000130;28;21097;-70
2022/09/19 08:21:53;;;;;;;0.98;0.80;;;;;;;;;;5001102;28;20042;-70
2022/09/19 08:24:18;;;;;;;4.53;0.85;;;;;;;;;;5000931;28;20502;-70
2022/09/19 08:26:45;;;;;;;3.83;1.00;;;;;;;;;;5005172;28;20459;-70
2022/09/19 08:29:12;;;;;;;1.58;0.93;;;;;;;;;;4999994;28;20042;-70
2022/09/19 08:31:51;;;;;;;4.63;1.15;;;;;;;;;;5002544;28;20086;-70
2022/09/19 08:34:16;;;;;;;5.65;1.20;;;;;;;;;;5001679;28;20038;-71
2022/09/19 08:36:43;;;;;;;7.22;1.10;;;;;;;;;;5004524;28;20054;-70
2022/09/19 08:39:08;;;;;;;5.90;1.10;;;;;;;;;;4997713;28;20467;-71
2022/09/19 08:42:02;;;;;;;5.72;0.98;;;;;;;;;;4999201;28;21141;-70
2022/09/19 08:44:36;;;;;;;4.90;0.90;;;;;;;;;;5015955;28;20045;-70
2022/09/19 08:47:18;;;;;;;4.72;1.80;;;;;;;;;;4998510;28;20050;-71
2022/09/19 08:49:59;;;;;;;3.67;1.00;;;;;;;;;;5001956;28;20091;-70
2022/09/19 08:52:25;;;;;;;4.57;1.15;;;;;;;;;;4999199;28;20073;-70
2022/09/19 08:54:53;;;;;;;4.30;1.23;;;;;;;;;;4999784;28;20081;-70
2022/09/19 08:57:29;;;;;;;5.72;1.13;;;;;;;;;;4997734;28;20403;-71
2022/09/19 09:00:04;;;;;;;6.57;1.40;;;;;;;;;;4999835;28;20077;-71
2022/09/19 09:02:52;;;;;;;5.53;1.65;;;;;;;;;;4983158;28;20108;-71
2022/09/19 09:05:38;;;;;;;2.80;1.45;;;;;;;;;;4998371;28;20045;-70
2022/09/19 09:08:16;;;;;;;2.13;1.10;;;;;;;;;;4999023;28;20050;-70
2022/09/19 09:10:55;;;;;;;2.40;1.10;;;;;;;;;;5002673;28;20038;-71
2022/09/19 09:13:45;;;;;;;2.85;1.10;;;;;;;;;;5000784;28;20050;-71
2022/09/19 09:16:46;;;;;;;3.60;1.00;;;;;;;;;;5002468;28;20456;-72
2022/09/19 09:19:23;;;;;;;5.47;1.20;;;;;;;;;;5000558;28;20041;-71
2022/09/19 09:21:59;;;;;;;4.47;1.13;;;;;;;;;;5002592;28;20510;-71
2022/09/19 09:24:43;;;;;;;6.82;1.38;;;;;;;;;;5001526;28;20091;-70
2022/09/19 09:27:36;;;;;;;1.15;0.85;;;;;;;;;;4997882;28;20050;-71
2022/09/19 09:30:16;;;;;;;5.90;1.48;;;;;;;;;;4998837;28;20057;-71
2022/09/19 09:32:51;;;;;;;6.82;1.52;;;;;;;;;;5000490;28;20053;-71
2022/09/19 09:35:39;;;;;;;3.92;1.10;;;;;;;;;;4997041;28;20050;-71
2022/09/19 09:38:24;;;;;;;4.43;1.10;;;;;;;;;;4998602;28;20057;-71
2022/09/19 09:43:54;;;;;;;6.07;1.27;;;;;;;;;;4988135;28;20041;-71
2022/09/19 09:46:33;;;;;;;4.72;1.00;;;;;;;;;;4997590;28;20085;-70
2022/09/19 09:48:59;;;;;;;6.03;1.48;;;;;;;;;;5000449;28;20138;-71
2022/09/19 09:51:55;;;;;;;2.47;0.93;;;;;;;;;;5001713;28;20478;-71
2022/09/19 09:57:46;;;;;;;4.45;1.25;;;;;;;;;;4983589;28;20042;-71
2022/09/19 10:03:36;;;;;;;1.02;0.80;;;;;;;;;;5001550;28;20037;-71
2022/09/19 10:06:52;;;;;;;3.38;0.77;;;;;;;;;;5009859;28;20452;-70
2022/09/19 10:09:33;;;;;;;5.85;1.45;;;;;;;;;;4996732;28;20144;-71
2022/09/19 10:12:14;;;;;;;6.97;1.13;;;;;;;;;;4998759;28;20585;-71
2022/09/19 10:14:41;;;;;;;2.20;0.90;;;;;;;;;;5000484;28;20068;-71
2022/09/19 10:17:28;;;;;;;2.30;0.80;;;;;;;;;;4996262;28;20058;-71
2022/09/19 10:20:04;;;;;;;1.63;0.60;;;;;;;;;;5018899;28;20056;-70
2022/09/19 10:22:29;;;;;;;4.57;0.80;;;;;;;;;;4998503;28;20050;-71
2022/09/19 10:25:13;;;;;;;7.20;1.50;;;;;;;;;;4997663;28;20048;-71
2022/09/19 10:27:45;;;;;;;2.28;0.93;;;;;;;;;;5000374;28;20045;-71
2022/09/19 10:30:26;;;;;;;4.05;0.90;;;;;;;;;;4996614;28;20046;-70
2022/09/19 10:32:54;;;;;;;3.42;0.73;;;;;;;;;;4996990;28;20084;-69
2022/09/19 10:35:41;;;;;;;4.15;0.80;;;;;;;;;;4983992;28;20129;-70
2022/09/19 10:38:15;;;;;;;3.20;1.33;;;;;;;;;;4998019;28;20052;-70
2022/09/19 10:40:55;;;;;;;1.52;0.70;;;;;;;;;;4999141;28;20617;-69
2022/09/19 10:43:32;;;;;;;0.98;0.70;;;;;;;;;;4996887;28;20053;-69
2022/09/19 10:46:06;;;;;;;1.25;0.63;;;;;;;;;;5001263;28;20118;-69
2022/09/19 10:48:39;;;;;;;1.98;0.75;;;;;;;;;;5000593;28;20053;-69
2022/09/19 10:51:09;;;;;;;;;;;;;;;;;;4997003;28;20050;-70
2022/09/19 10:53:39;;;;;;;1.97;1.03;;;;;;;;;;4999347;28;19948;-69
2022/09/19 10:56:13;;;;;;;3.90;1.02;;;;;;;;;;4997661;28;20084;-70
2022/09/19 10:58:42;;;;;;;0.60;0.60;;;;;;;;;;5000247;28;20041;-70
2022/09/19 11:01:22;;;;;;;2.58;1.05;;;;;;;;;;4995843;28;20050;-70
2022/09/19 11:04:01;;;;;;;1.42;0.70;;;;;;;;;;4998238;28;20049;-70
2022/09/19 11:06:29;;;;;;;3.33;1.00;;;;;;;;;;4997646;28;20139;-70
2022/09/19 11:08:55;;;;;;;1.50;0.68;;;;;;;;;;5018651;28;20048;-70
2022/09/19 11:11:37;;;;;;;2.58;0.80;;;;;;;;;;4997539;28;20053;-70
2022/09/19 11:14:19;;;;;;;2.25;0.60;;;;;;;;;;4997481;28;20457;-70
2022/09/19 11:17:23;;;;;;;2.95;0.70;;;;;;;;;;5001176;28;20084;-70
2022/09/19 11:20:16;;;;;;;3.50;0.63;;;;;;;;;;4983637;28;20054;-70
2022/09/19 11:23:17;;;;;;;2.33;0.70;;;;;;;;;;5005255;28;20045;-70
2022/09/19 11:25:50;;;;;;;1.75;0.70;;;;;;;;;;4986992;28;20052;-70
2022/09/19 11:28:34;;;;;;;3.10;1.05;;;;;;;;;;5002347;28;20125;-70
2022/09/19 11:31:21;;;;;;;1.50;1.15;;;;;;;;;;5001273;28;20431;-70
2022/09/19 11:33:57;;;;;;;1.48;0.65;;;;;;;;;;5022416;28;20041;-70
2022/09/19 11:36:44;;;;;;;2.22;0.55;;;;;;;;;;4987349;28;20165;-70
2022/09/19 11:39:41;;;;;;;0.75;0.50;;;;;;;;;;4985070;28;20518;-70
2022/09/19 11:42:26;;;;;;;1.95;0.77;;;;;;;;;;4951765;28;20037;-70
2022/09/19 11:45:18;;;;;;;0.82;0.43;;;;;;;;;;5014464;28;20156;-70
2022/09/19 11:48:07;;;;;;;3.13;0.93;;;;;;;;;;4997111;28;20796;-70
2022/09/19 11:50:59;;;;;;;2.00;0.70;;;;;;;;;;5003342;28;20057;-70
2022/09/19 11:54:01;;;;;;;2.25;0.90;;;;;;;;;;5001138;28;20046;-70
2022/09/19 11:56:52;;;;;;;2.65;0.65;;;;;;;;;;4970564;28;20417;-70
2022/09/19 11:59:22;;;;;;;3.40;0.95;;;;;;;;;;5001440;28;20450;-69
2022/09/19 12:02:06;;;;;;;4.47;0.60;;;;;;;;;;4998085;28;20060;-69
2022/09/19 12:05:11;;;;;;;2.13;0.63;;;;;;;;;;4997478;28;20038;-69
2022/09/19 12:08:18;;;;;;;4.10;0.90;;;;;;;;;;4988601;28;20062;-70
2022/09/19 12:10:59;;;;;;;1.33;0.60;;;;;;;;;;5003118;28;20195;-68
2022/09/19 12:13:36;;;;;;;4.90;1.23;;;;;;;;;;4996988;28;20076;-69
2022/09/19 12:16:10;;;;;;;6.30;1.10;;;;;;;;;;5002057;28;20053;-68
2022/09/19 12:18:44;;;;;;;2.13;0.93;;;;;;;;;;5000276;28;20607;-68
2022/09/19 12:21:12;;;;;;;2.22;1.17;;;;;;;;;;4997997;28;20090;-68
2022/09/19 12:26:49;;;;;;;7.13;1.00;;;;;;;;;;4999520;28;20491;-69
2022/09/19 12:29:23;;;;;;;1.55;0.60;;;;;;;;;;4997376;28;20034;-69
2022/09/19 12:31:58;;;;;;;2.47;0.85;;;;;;;;;;4998695;28;20038;-68
2022/09/19 12:34:29;;;;;;;0.77;0.57;;;;;;;;;;4998960;28;20502;-68
2022/09/19 12:37:16;;;;;;;0.77;0.57;;;;;;;;;;5015193;28;20141;-69
2022/09/19 12:39:52;;;;;;;3.40;0.70;;;;;;;;;;5002063;28;20634;-69
2022/09/19 12:42:44;;;;;;;3.85;0.73;;;;;;;;;;5020235;28;20073;-69
2022/09/19 12:45:14;;;;;;;0.80;0.80;;;;;;;;;;5000306;28;20046;-69
2022/09/19 12:47:59;;;;;;;5.68;1.10;;;;;;;;;;5000617;28;20048;-69
2022/09/19 12:50:42;;;;;;;4.50;0.80;;;;;;;;;;5001433;28;20050;-69
2022/09/19 12:53:11;;;;;;;3.30;0.80;;;;;;;;;;4999149;28;20042;-69
2022/09/19 12:55:56;;;;;;;4.35;0.77;;;;;;;;;;5019347;28;20704;-69
2022/09/19 12:58:36;;;;;;;1.85;0.70;;;;;;;;;;5021470;28;20046;-69
2022/09/19 13:01:37;;;;;;;2.25;1.08;;;;;;;;;;5020379;28;20064;-69
2022/09/19 13:04:30;;;;;;;3.88;1.00;;;;;;;;;;5019513;28;20049;-69
2022/09/19 13:07:14;;;;;;;0.82;0.70;;;;;;;;;;5014931;28;20068;-70
2022/09/19 13:09:51;;;;;;;3.95;1.08;;;;;;;;;;4999128;28;20050;-69
2022/09/19 13:12:32;;;;;;;0.60;0.50;;;;;;;;;;5018769;28;20053;-69
2022/09/19 13:15:02;;;;;;;4.60;0.80;;;;;;;;;;5017820;28;20107;-69
2022/09/19 13:23:32;;;;;;;2.35;0.82;;;;;;;;;;5002408;28;20150;-69
2022/09/19 13:26:16;;;;;;;1.10;0.52;;;;;;;;;;5011440;28;20148;-69
2022/09/19 13:28:51;;;;;;;2.78;0.80;;;;;;;;;;5019519;28;20041;-69
2022/09/19 13:31:18;;;;;;;2.58;0.60;;;;;;;;;;5017678;28;20158;-69
2022/09/19 13:33:52;;;;;;;1.95;0.70;;;;;;;;;;5019521;28;20033;-69
2022/09/19 13:36:23;;;;;;;3.15;0.70;;;;;;;;;;5017376;28;20070;-69
2022/09/19 13:38:55;;;;;;;3.50;0.70;;;;;;;;;;5018703;28;20056;-69
2022/09/19 13:41:42;;;;;;;0.70;0.40;;;;;;;;;;5016525;28;20071;-69
2022/09/19 13:44:50;;;;;;;3.15;0.40;;;;;;;;;;5017859;28;20049;-69
2022/09/19 13:47:26;;;;;;;1.13;0.70;;;;;;;;;;5005723;28;20048;-69
2022/09/19 13:50:04;;;;;;;0.65;0.45;;;;;;;;;;5017766;28;20099;-69
2022/09/19 13:52:37;;;;;;;0.50;0.40;;;;;;;;;;5017492;28;20037;-69
2022/09/19 13:55:12;;;;;;;0.85;0.20;;;;;;;;;;5016026;28;20160;-69
2022/09/19 13:57:40;;;;;;;1.13;0.28;;;;;;;;;;5015751;28;20063;-69
2022/09/19 14:00:29;;;;;;;3.13;0.38;;;;;;;;;;5020304;28;20072;-69
2022/09/19 14:03:24;;;;;;;0.20;0.20;;;;;;;;;;5020423;28;20049;-69
2022/09/19 14:05:49;;;;;;;1.05;0.40;;;;;;;;;;5004648;28;20057;-69
2022/09/19 14:08:33;;;;;;;0.32;0.32;;;;;;;;;;5019953;28;20053;-69
2022/09/19 14:11:00;;;;;;;0.68;0.38;;;;;;;;;;5019995;28;20372;-69
2022/09/19 14:13:35;;;;;;;2.17;0.30;;;;;;;;;;5019037;28;20922;-69
2022/09/19 14:16:02;;;;;;;2.05;0.50;;;;;;;;;;5019435;28;20800;-69
2022/09/19 14:18:49;;;;;;;1.88;0.40;;;;;;;;;;5020235;28;20049;-69
2022/09/19 14:21:27;;;;;;;1.10;0.60;;;;;;;;;;4997707;28;20111;-69
2022/09/19 14:24:01;;;;;;;0.50;0.50;;;;;;;;;;5012131;28;20041;-69
2022/09/19 14:27:09;;;;;;;2.15;0.60;;;;;;;;;;4999522;28;20058;-69
2022/09/19 14:29:58;;;;;;;10.40;1.10;;;;;;;;;;4988693;28;20050;-69
2022/09/19 14:32:31;;;;;;;1.13;0.52;;;;;;;;;;5017384;28;20041;-69
2022/09/19 14:35:16;;;;;;;3.75;0.75;;;;;;;;;;4997184;28;20038;-68
2022/09/19 14:37:59;;;;;;;1.70;0.60;;;;;;;;;;4985064;28;20050;-69
2022/09/19 14:40:36;;;;;;;2.30;0.68;;;;;;;;;;5017563;28;20886;-68
2022/09/19 14:43:11;;;;;;;2.00;0.50;;;;;;;;;;5018788;28;20041;-69
2022/09/19 14:45:40;;;;;;;3.42;0.70;;;;;;;;;;5001265;28;20037;-69
2022/09/19 14:48:12;;;;;;;1.65;0.80;;;;;;;;;;5020655;28;20060;-69
2022/09/19 14:50:51;;;;;;;2.13;1.00;;;;;;;;;;5020420;28;20045;-69
2022/09/19 14:53:26;;;;;;;1.92;0.95;;;;;;;;;;5019728;28;20072;-69
2022/09/19 14:55:59;;;;;;;0.85;0.70;;;;;;;;;;5020976;28;20070;-69
2022/09/19 14:58:30;;;;;;;1.27;0.68;;;;;;;;;;5023644;28;20437;-69
2022/09/19 15:01:06;;;;;;;3.10;0.82;;;;;;;;;;5021793;28;20052;-69
2022/09/19 15:03:54;;;;;;;0.50;0.50;;;;;;;;;;4987511;28;20045;-69
2022/09/19 15:06:34;;;;;;;1.00;0.70;;;;;;;;;;5023402;28;20045;-69
2022/09/19 15:09:01;;;;;;;3.13;0.63;;;;;;;;;;5023293;28;20053;-69
2022/09/19 15:11:27;;;;;;;5.15;0.68;;;;;;;;;;5001420;28;20108;-69
2022/09/19 15:13:55;;;;;;;1.25;0.52;;;;;;;;;;5019363;28;20803;-69
2022/09/19 15:16:21;;;;;;;1.33;0.77;;;;;;;;;;4988963;28;20049;-70
2022/09/19 15:18:50;;;;;;;2.15;0.68;;;;;;;;;;5005053;28;20033;-69
2022/09/19 15:21:20;;;;;;;0.45;0.40;;;;;;;;;;5001546;28;20038;-69
2022/09/19 15:23:47;;;;;;;1.55;0.50;;;;;;;;;;5022442;28;20084;-69
2022/09/19 15:26:20;;;;;;;0.82;0.60;;;;;;;;;;5023238;28;20037;-69
2022/09/19 15:29:23;;;;;;;21.40;1.33;;;;;;;;;;5023288;28;20077;-69
2022/09/19 15:31:50;;;;;;;1.33;0.50;;;;;;;;;;4997145;28;20089;-69
2022/09/19 15:34:17;;;;;;;2.60;0.70;;;;;;;;;;5018830;28;20064;-69
2022/09/19 15:36:44;;;;;;;1.75;0.70;;;;;;;;;;5003965;28;20038;-69
2022/09/19 15:39:14;;;;;;;2.47;0.80;;;;;;;;;;5021960;28;20082;-69
2022/09/19 15:41:41;;;;;;;0.95;0.60;;;;;;;;;;5021922;28;20053;-69
2022/09/19 15:44:24;;;;;;;2.92;0.60;;;;;;;;;;5022901;28;20041;-69
2022/09/19 15:46:49;;;;;;;0.63;0.50;;;;;;;;;;5001910;28;20461;-69
2022/09/19 15:49:30;;;;;;;1.48;0.52;;;;;;;;;;5016191;28;20045;-69
2022/09/19 15:52:01;;;;;;;0.52;0.50;;;;;;;;;;5015178;28;20045;-69